sensor_id;sensor_type;location;lat;lon;timestamp;temperature;humidity
10903;DHT22;5504;47.312;11.060;2023-08-08T00:00:25;13.00;88.30
10903;DHT22;5504;47.312;11.060;2023-08-08T00:02:51;12.90;88.10
10903;DHT22;5504;47.312;11.060;2023-08-08T00:05:17;12.70;88.00
10903;DHT22;5504;47.312;11.060;2023-08-08T00:07:43;12.70;87.60
10903;DHT22;5504;47.312;11.060;2023-08-08T00:10:09;12.70;88.20
10903;DHT22;5504;47.312;11.060;2023-08-08T00:12:35;12.70;88.60
10903;DHT22;5504;47.312;11.060;2023-08-08T00:15:00;12.70;88.90
10903;DHT22;5504;47.312;11.060;2023-08-08T00:17:26;12.60;87.50
10903;DHT22;5504;47.312;11.060;2023-08-08T00:19:52;12.70;88.30
10903;DHT22;5504;47.312;11.060;2023-08-08T00:22:17;12.70;88.80
10903;DHT22;5504;47.312;11.060;2023-08-08T00:24:43;12.60;88.90
10903;DHT22;5504;47.312;11.060;2023-08-08T00:27:09;12.70;89.10
10903;DHT22;5504;47.312;11.060;2023-08-08T00:29:34;12.70;89.80
10903;DHT22;5504;47.312;11.060;2023-08-08T00:32:00;12.70;89.60
10903;DHT22;5504;47.312;11.060;2023-08-08T00:34:26;12.60;88.70
10903;DHT22;5504;47.312;11.060;2023-08-08T00:36:51;12.60;88.20
10903;DHT22;5504;47.312;11.060;2023-08-08T00:39:17;12.50;88.30
10903;DHT22;5504;47.312;11.060;2023-08-08T00:41:43;12.60;89.10
10903;DHT22;5504;47.312;11.060;2023-08-08T00:44:09;12.60;89.00
10903;DHT22;5504;47.312;11.060;2023-08-08T00:46:35;12.70;88.80
10903;DHT22;5504;47.312;11.060;2023-08-08T00:49:01;12.70;88.30
10903;DHT22;5504;47.312;11.060;2023-08-08T00:51:26;12.70;88.40
10903;DHT22;5504;47.312;11.060;2023-08-08T00:53:53;12.70;88.40
10903;DHT22;5504;47.312;11.060;2023-08-08T00:56:19;12.60;89.00
10903;DHT22;5504;47.312;11.060;2023-08-08T00:58:45;12.40;88.90
10903;DHT22;5504;47.312;11.060;2023-08-08T01:01:12;12.30;89.20
10903;DHT22;5504;47.312;11.060;2023-08-08T01:03:38;12.30;89.70
10903;DHT22;5504;47.312;11.060;2023-08-08T01:11:34;12.20;89.20
10903;DHT22;5504;47.312;11.060;2023-08-08T01:14:01;12.10;90.00
10903;DHT22;5504;47.312;11.060;2023-08-08T01:16:27;12.10;90.10
10903;DHT22;5504;47.312;11.060;2023-08-08T01:18:54;12.00;90.10
10903;DHT22;5504;47.312;11.060;2023-08-08T01:21:20;12.00;90.40
10903;DHT22;5504;47.312;11.060;2023-08-08T01:23:53;12.10;90.20
10903;DHT22;5504;47.312;11.060;2023-08-08T01:26:21;11.90;90.10
10903;DHT22;5504;47.312;11.060;2023-08-08T01:28:47;11.90;90.00
10903;DHT22;5504;47.312;11.060;2023-08-08T01:31:13;11.80;90.20
10903;DHT22;5504;47.312;11.060;2023-08-08T01:33:39;11.80;90.50
10903;DHT22;5504;47.312;11.060;2023-08-08T01:36:10;11.70;90.60
10903;DHT22;5504;47.312;11.060;2023-08-08T01:38:43;11.70;90.60
10903;DHT22;5504;47.312;11.060;2023-08-08T01:41:09;11.60;90.60
10903;DHT22;5504;47.312;11.060;2023-08-08T01:43:37;11.70;90.70
10903;DHT22;5504;47.312;11.060;2023-08-08T01:46:04;11.60;90.60
10903;DHT22;5504;47.312;11.060;2023-08-08T01:48:30;11.70;90.50
10903;DHT22;5504;47.312;11.060;2023-08-08T01:50:55;11.60;90.80
10903;DHT22;5504;47.312;11.060;2023-08-08T01:53:21;11.60;90.80
10903;DHT22;5504;47.312;11.060;2023-08-08T01:55:47;11.60;90.70
10903;DHT22;5504;47.312;11.060;2023-08-08T01:58:12;11.50;90.90
10903;DHT22;5504;47.312;11.060;2023-08-08T02:00:38;11.50;90.80
10903;DHT22;5504;47.312;11.060;2023-08-08T02:03:06;11.40;90.80
10903;DHT22;5504;47.312;11.060;2023-08-08T02:05:32;11.50;90.90
10903;DHT22;5504;47.312;11.060;2023-08-08T02:07:58;11.50;90.90
10903;DHT22;5504;47.312;11.060;2023-08-08T02:10:24;11.60;90.80
10903;DHT22;5504;47.312;11.060;2023-08-08T02:12:49;11.50;90.60
10903;DHT22;5504;47.312;11.060;2023-08-08T02:15:15;11.40;90.50
10903;DHT22;5504;47.312;11.060;2023-08-08T02:17:41;11.30;90.50
10903;DHT22;5504;47.312;11.060;2023-08-08T02:20:07;11.20;90.80
10903;DHT22;5504;47.312;11.060;2023-08-08T02:22:33;11.20;90.90
10903;DHT22;5504;47.312;11.060;2023-08-08T02:24:59;11.10;90.80
10903;DHT22;5504;47.312;11.060;2023-08-08T02:27:25;11.10;90.80
10903;DHT22;5504;47.312;11.060;2023-08-08T02:29:51;11.00;90.70
10903;DHT22;5504;47.312;11.060;2023-08-08T02:32:16;11.00;90.70
10903;DHT22;5504;47.312;11.060;2023-08-08T02:34:42;11.00;90.90
10903;DHT22;5504;47.312;11.060;2023-08-08T02:37:08;10.90;90.90
10903;DHT22;5504;47.312;11.060;2023-08-08T02:39:34;10.90;91.10
10903;DHT22;5504;47.312;11.060;2023-08-08T02:41:59;10.80;91.30
10903;DHT22;5504;47.312;11.060;2023-08-08T02:44:25;10.80;91.20
10903;DHT22;5504;47.312;11.060;2023-08-08T02:46:51;10.80;91.40
10903;DHT22;5504;47.312;11.060;2023-08-08T02:49:16;10.90;91.00
10903;DHT22;5504;47.312;11.060;2023-08-08T02:51:42;10.80;90.80
10903;DHT22;5504;47.312;11.060;2023-08-08T02:54:08;10.50;91.30
10903;DHT22;5504;47.312;11.060;2023-08-08T02:56:34;10.50;91.50
10903;DHT22;5504;47.312;11.060;2023-08-08T02:58:59;10.50;91.40
10903;DHT22;5504;47.312;11.060;2023-08-08T03:01:25;10.40;91.40
10903;DHT22;5504;47.312;11.060;2023-08-08T03:03:51;10.40;91.30
10903;DHT22;5504;47.312;11.060;2023-08-08T03:06:16;10.40;91.40
10903;DHT22;5504;47.312;11.060;2023-08-08T03:08:42;10.40;91.40
10903;DHT22;5504;47.312;11.060;2023-08-08T03:11:08;10.30;91.30
10903;DHT22;5504;47.312;11.060;2023-08-08T03:13:33;10.30;91.30
10903;DHT22;5504;47.312;11.060;2023-08-08T03:15:59;10.20;91.40
10903;DHT22;5504;47.312;11.060;2023-08-08T03:18:25;10.20;91.70
10903;DHT22;5504;47.312;11.060;2023-08-08T03:20:52;10.20;91.80
10903;DHT22;5504;47.312;11.060;2023-08-08T03:23:18;10.20;91.90
10903;DHT22;5504;47.312;11.060;2023-08-08T03:25:44;10.10;91.80
10903;DHT22;5504;47.312;11.060;2023-08-08T03:28:09;10.10;91.90
10903;DHT22;5504;47.312;11.060;2023-08-08T03:30:38;10.10;91.90
10903;DHT22;5504;47.312;11.060;2023-08-08T03:33:04;10.10;91.90
10903;DHT22;5504;47.312;11.060;2023-08-08T03:35:30;10.00;91.80
10903;DHT22;5504;47.312;11.060;2023-08-08T03:37:56;10.00;92.00
10903;DHT22;5504;47.312;11.060;2023-08-08T03:40:22;10.00;91.90
10903;DHT22;5504;47.312;11.060;2023-08-08T03:42:47;10.00;92.00
10903;DHT22;5504;47.312;11.060;2023-08-08T03:45:13;10.00;92.10
10903;DHT22;5504;47.312;11.060;2023-08-08T03:47:39;9.90;91.90
10903;DHT22;5504;47.312;11.060;2023-08-08T03:50:06;9.90;92.00
10903;DHT22;5504;47.312;11.060;2023-08-08T03:52:32;10.00;92.00
10903;DHT22;5504;47.312;11.060;2023-08-08T03:55:01;10.00;92.10
10903;DHT22;5504;47.312;11.060;2023-08-08T03:57:29;10.00;91.90
10903;DHT22;5504;47.312;11.060;2023-08-08T03:59:54;10.00;91.90
10903;DHT22;5504;47.312;11.060;2023-08-08T04:02:20;9.90;91.80
10903;DHT22;5504;47.312;11.060;2023-08-08T04:04:46;9.80;92.00
10903;DHT22;5504;47.312;11.060;2023-08-08T04:07:11;9.80;92.00
10903;DHT22;5504;47.312;11.060;2023-08-08T04:09:37;9.80;92.00
10903;DHT22;5504;47.312;11.060;2023-08-08T04:12:03;9.80;92.20
10903;DHT22;5504;47.312;11.060;2023-08-08T04:14:28;9.90;92.20
10903;DHT22;5504;47.312;11.060;2023-08-08T04:16:54;9.90;92.10
10903;DHT22;5504;47.312;11.060;2023-08-08T04:19:20;9.90;92.20
10903;DHT22;5504;47.312;11.060;2023-08-08T04:21:46;9.80;92.00
10903;DHT22;5504;47.312;11.060;2023-08-08T04:24:11;9.90;92.00
10903;DHT22;5504;47.312;11.060;2023-08-08T04:26:38;9.90;92.10
10903;DHT22;5504;47.312;11.060;2023-08-08T04:29:04;10.00;92.20
10903;DHT22;5504;47.312;11.060;2023-08-08T04:31:30;9.90;92.00
10903;DHT22;5504;47.312;11.060;2023-08-08T04:33:56;9.70;92.00
10903;DHT22;5504;47.312;11.060;2023-08-08T04:36:26;9.50;92.20
10903;DHT22;5504;47.312;11.060;2023-08-08T04:38:51;9.60;92.50
10903;DHT22;5504;47.312;11.060;2023-08-08T04:41:17;9.80;92.70
10903;DHT22;5504;47.312;11.060;2023-08-08T04:43:43;9.90;92.70
10903;DHT22;5504;47.312;11.060;2023-08-08T04:46:08;9.90;92.50
10903;DHT22;5504;47.312;11.060;2023-08-08T04:48:35;9.80;92.40
10903;DHT22;5504;47.312;11.060;2023-08-08T04:51:04;9.70;92.40
10903;DHT22;5504;47.312;11.060;2023-08-08T04:53:30;9.70;92.30
10903;DHT22;5504;47.312;11.060;2023-08-08T04:55:55;9.80;92.20
10903;DHT22;5504;47.312;11.060;2023-08-08T04:58:21;9.80;92.30
10903;DHT22;5504;47.312;11.060;2023-08-08T05:00:47;9.80;92.40
10903;DHT22;5504;47.312;11.060;2023-08-08T05:03:13;9.80;92.20
10903;DHT22;5504;47.312;11.060;2023-08-08T05:05:38;9.80;92.40
10903;DHT22;5504;47.312;11.060;2023-08-08T05:08:04;9.80;92.60
10903;DHT22;5504;47.312;11.060;2023-08-08T05:10:30;9.80;92.90
10903;DHT22;5504;47.312;11.060;2023-08-08T05:12:57;10.00;93.20
10903;DHT22;5504;47.312;11.060;2023-08-08T05:15:22;10.10;93.20
10903;DHT22;5504;47.312;11.060;2023-08-08T05:17:48;10.20;93.30
10903;DHT22;5504;47.312;11.060;2023-08-08T05:20:14;10.40;93.20
10903;DHT22;5504;47.312;11.060;2023-08-08T05:22:39;10.50;93.10
10903;DHT22;5504;47.312;11.060;2023-08-08T05:25:06;10.60;92.90
10903;DHT22;5504;47.312;11.060;2023-08-08T05:27:31;10.70;92.70
10903;DHT22;5504;47.312;11.060;2023-08-08T05:29:57;10.80;92.70
10903;DHT22;5504;47.312;11.060;2023-08-08T05:32:23;10.90;92.70
10903;DHT22;5504;47.312;11.060;2023-08-08T05:34:51;11.10;92.40
10903;DHT22;5504;47.312;11.060;2023-08-08T05:37:16;11.10;91.90
10903;DHT22;5504;47.312;11.060;2023-08-08T05:39:42;11.20;91.40
10903;DHT22;5504;47.312;11.060;2023-08-08T05:42:08;11.10;91.70
10903;DHT22;5504;47.312;11.060;2023-08-08T05:44:33;11.20;91.90
10903;DHT22;5504;47.312;11.060;2023-08-08T05:46:59;11.50;92.10
10903;DHT22;5504;47.312;11.060;2023-08-08T05:49:25;11.40;91.30
10903;DHT22;5504;47.312;11.060;2023-08-08T05:51:50;11.50;91.30
10903;DHT22;5504;47.312;11.060;2023-08-08T05:54:16;11.60;91.20
10903;DHT22;5504;47.312;11.060;2023-08-08T05:56:42;11.80;91.10
10903;DHT22;5504;47.312;11.060;2023-08-08T05:59:07;11.90;90.90
10903;DHT22;5504;47.312;11.060;2023-08-08T06:01:33;12.20;91.00
10903;DHT22;5504;47.312;11.060;2023-08-08T06:04:00;12.40;90.50
10903;DHT22;5504;47.312;11.060;2023-08-08T06:06:26;12.30;90.10
10903;DHT22;5504;47.312;11.060;2023-08-08T06:08:52;12.70;90.30
10903;DHT22;5504;47.312;11.060;2023-08-08T06:11:18;13.00;89.10
10903;DHT22;5504;47.312;11.060;2023-08-08T06:13:44;13.50;89.00
10903;DHT22;5504;47.312;11.060;2023-08-08T06:16:09;13.80;87.00
10903;DHT22;5504;47.312;11.060;2023-08-08T06:18:36;14.20;85.80
10903;DHT22;5504;47.312;11.060;2023-08-08T06:21:02;14.40;86.30
10903;DHT22;5504;47.312;11.060;2023-08-08T06:23:27;14.50;84.10
10903;DHT22;5504;47.312;11.060;2023-08-08T06:25:53;14.90;85.20
10903;DHT22;5504;47.312;11.060;2023-08-08T06:28:19;15.20;85.00
10903;DHT22;5504;47.312;11.060;2023-08-08T06:30:45;15.40;84.90
10903;DHT22;5504;47.312;11.060;2023-08-08T06:33:11;15.50;83.40
10903;DHT22;5504;47.312;11.060;2023-08-08T06:35:37;15.80;84.40
10903;DHT22;5504;47.312;11.060;2023-08-08T06:38:03;15.50;80.90
10903;DHT22;5504;47.312;11.060;2023-08-08T06:40:28;15.90;81.50
10903;DHT22;5504;47.312;11.060;2023-08-08T06:42:54;16.30;81.00
10903;DHT22;5504;47.312;11.060;2023-08-08T06:45:21;16.40;79.70
10903;DHT22;5504;47.312;11.060;2023-08-08T06:47:46;16.40;78.40
10903;DHT22;5504;47.312;11.060;2023-08-08T06:50:12;16.90;79.90
10903;DHT22;5504;47.312;11.060;2023-08-08T06:52:38;17.40;80.30
10903;DHT22;5504;47.312;11.060;2023-08-08T06:55:04;17.80;78.80
10903;DHT22;5504;47.312;11.060;2023-08-08T06:57:33;18.00;75.90
10903;DHT22;5504;47.312;11.060;2023-08-08T06:59:59;17.70;70.90
10903;DHT22;5504;47.312;11.060;2023-08-08T07:02:24;17.20;73.90
10903;DHT22;5504;47.312;11.060;2023-08-08T07:04:50;17.50;75.50
10903;DHT22;5504;47.312;11.060;2023-08-08T07:07:17;17.90;77.10
10903;DHT22;5504;47.312;11.060;2023-08-08T07:09:42;18.10;72.70
10903;DHT22;5504;47.312;11.060;2023-08-08T07:12:09;17.20;71.30
10903;DHT22;5504;47.312;11.060;2023-08-08T07:14:34;17.30;72.50
10903;DHT22;5504;47.312;11.060;2023-08-08T07:17:00;16.80;73.40
10903;DHT22;5504;47.312;11.060;2023-08-08T07:19:28;17.40;77.20
10903;DHT22;5504;47.312;11.060;2023-08-08T07:21:54;17.80;76.50
10903;DHT22;5504;47.312;11.060;2023-08-08T07:24:20;18.30;76.10
10903;DHT22;5504;47.312;11.060;2023-08-08T07:26:46;18.70;75.10
10903;DHT22;5504;47.312;11.060;2023-08-08T07:29:11;19.10;73.40
10903;DHT22;5504;47.312;11.060;2023-08-08T07:31:37;19.50;72.30
10903;DHT22;5504;47.312;11.060;2023-08-08T07:34:03;19.90;71.00
10903;DHT22;5504;47.312;11.060;2023-08-08T07:36:29;20.10;69.70
10903;DHT22;5504;47.312;11.060;2023-08-08T07:38:54;19.90;69.30
10903;DHT22;5504;47.312;11.060;2023-08-08T07:41:26;20.10;67.70
10903;DHT22;5504;47.312;11.060;2023-08-08T07:43:52;20.40;68.80
10903;DHT22;5504;47.312;11.060;2023-08-08T07:46:18;20.60;68.30
10903;DHT22;5504;47.312;11.060;2023-08-08T07:48:43;20.80;70.20
10903;DHT22;5504;47.312;11.060;2023-08-08T07:51:09;21.20;68.50
10903;DHT22;5504;47.312;11.060;2023-08-08T07:53:35;21.40;65.90
10903;DHT22;5504;47.312;11.060;2023-08-08T07:56:00;20.40;63.10
10903;DHT22;5504;47.312;11.060;2023-08-08T07:58:26;20.30;65.60
10903;DHT22;5504;47.312;11.060;2023-08-08T08:00:52;20.50;65.10
10903;DHT22;5504;47.312;11.060;2023-08-08T08:03:19;20.50;70.70
10903;DHT22;5504;47.312;11.060;2023-08-08T08:05:45;20.70;62.10
10903;DHT22;5504;47.312;11.060;2023-08-08T08:08:11;20.70;65.20
10903;DHT22;5504;47.312;11.060;2023-08-08T08:10:37;21.20;66.70
10903;DHT22;5504;47.312;11.060;2023-08-08T08:13:03;20.60;63.20
10903;DHT22;5504;47.312;11.060;2023-08-08T08:15:29;20.60;66.60
10903;DHT22;5504;47.312;11.060;2023-08-08T08:17:55;21.40;68.40
10903;DHT22;5504;47.312;11.060;2023-08-08T08:20:20;22.20;65.90
10903;DHT22;5504;47.312;11.060;2023-08-08T08:22:46;22.40;63.20
10903;DHT22;5504;47.312;11.060;2023-08-08T08:25:13;22.10;58.30
10903;DHT22;5504;47.312;11.060;2023-08-08T08:27:39;21.50;56.20
10903;DHT22;5504;47.312;11.060;2023-08-08T08:30:06;21.60;64.60
10903;DHT22;5504;47.312;11.060;2023-08-08T08:32:35;22.20;59.00
10903;DHT22;5504;47.312;11.060;2023-08-08T08:35:02;22.30;61.40
10903;DHT22;5504;47.312;11.060;2023-08-08T08:37:32;22.30;61.50
10903;DHT22;5504;47.312;11.060;2023-08-08T08:39:58;22.70;60.00
10903;DHT22;5504;47.312;11.060;2023-08-08T08:42:24;23.20;60.60
10903;DHT22;5504;47.312;11.060;2023-08-08T08:44:52;23.40;59.70
10903;DHT22;5504;47.312;11.060;2023-08-08T08:47:20;23.70;60.20
10903;DHT22;5504;47.312;11.060;2023-08-08T08:49:47;23.90;59.80
10903;DHT22;5504;47.312;11.060;2023-08-08T08:52:13;23.70;58.30
10903;DHT22;5504;47.312;11.060;2023-08-08T08:54:39;22.80;59.20
10903;DHT22;5504;47.312;11.060;2023-08-08T08:57:05;23.20;62.30
10903;DHT22;5504;47.312;11.060;2023-08-08T08:59:31;23.10;56.50
10903;DHT22;5504;47.312;11.060;2023-08-08T09:01:57;22.80;56.40
10903;DHT22;5504;47.312;11.060;2023-08-08T09:04:23;21.70;59.70
10903;DHT22;5504;47.312;11.060;2023-08-08T09:06:51;21.70;58.80
10903;DHT22;5504;47.312;11.060;2023-08-08T09:09:17;21.50;59.30
10903;DHT22;5504;47.312;11.060;2023-08-08T09:11:52;21.30;57.70
10903;DHT22;5504;47.312;11.060;2023-08-08T09:14:24;22.10;62.20
10903;DHT22;5504;47.312;11.060;2023-08-08T09:16:51;22.80;62.50
10903;DHT22;5504;47.312;11.060;2023-08-08T09:19:19;22.60;54.60
10903;DHT22;5504;47.312;11.060;2023-08-08T09:21:46;22.60;54.20
10903;DHT22;5504;47.312;11.060;2023-08-08T09:24:12;23.10;59.80
10903;DHT22;5504;47.312;11.060;2023-08-08T09:26:39;23.90;58.80
10903;DHT22;5504;47.312;11.060;2023-08-08T09:29:05;24.00;59.30
10903;DHT22;5504;47.312;11.060;2023-08-08T09:31:31;24.40;59.50
10903;DHT22;5504;47.312;11.060;2023-08-08T09:34:00;24.90;58.20
10903;DHT22;5504;47.312;11.060;2023-08-08T09:36:27;25.30;56.20
10903;DHT22;5504;47.312;11.060;2023-08-08T09:38:54;24.80;52.40
10903;DHT22;5504;47.312;11.060;2023-08-08T09:41:23;24.70;55.00
10903;DHT22;5504;47.312;11.060;2023-08-08T09:43:50;25.10;56.70
10903;DHT22;5504;47.312;11.060;2023-08-08T09:46:18;25.30;58.10
10903;DHT22;5504;47.312;11.060;2023-08-08T09:48:44;25.50;58.80
10903;DHT22;5504;47.312;11.060;2023-08-08T09:51:10;24.40;52.90
10903;DHT22;5504;47.312;11.060;2023-08-08T09:53:36;24.90;58.60
10903;DHT22;5504;47.312;11.060;2023-08-08T09:56:06;23.80;51.60
10903;DHT22;5504;47.312;11.060;2023-08-08T09:58:32;24.50;61.30
10903;DHT22;5504;47.312;11.060;2023-08-08T10:00:59;24.10;51.30
10903;DHT22;5504;47.312;11.060;2023-08-08T10:03:25;24.90;59.00
10903;DHT22;5504;47.312;11.060;2023-08-08T10:05:52;25.60;55.80
10903;DHT22;5504;47.312;11.060;2023-08-08T10:08:18;25.20;52.70
10903;DHT22;5504;47.312;11.060;2023-08-08T10:10:47;25.60;55.30
10903;DHT22;5504;47.312;11.060;2023-08-08T10:13:21;25.90;54.10
10903;DHT22;5504;47.312;11.060;2023-08-08T10:15:47;25.40;51.70
10903;DHT22;5504;47.312;11.060;2023-08-08T10:18:13;25.40;55.50
10903;DHT22;5504;47.312;11.060;2023-08-08T10:20:42;25.70;51.60
10903;DHT22;5504;47.312;11.060;2023-08-08T10:23:09;26.00;54.30
10903;DHT22;5504;47.312;11.060;2023-08-08T10:25:35;26.30;53.20
10903;DHT22;5504;47.312;11.060;2023-08-08T10:28:10;26.30;56.30
10903;DHT22;5504;47.312;11.060;2023-08-08T10:30:53;26.40;54.50
10903;DHT22;5504;47.312;11.060;2023-08-08T10:33:26;26.30;53.20
10903;DHT22;5504;47.312;11.060;2023-08-08T10:36:04;25.60;51.70
10903;DHT22;5504;47.312;11.060;2023-08-08T10:38:46;24.00;47.10
10903;DHT22;5504;47.312;11.060;2023-08-08T10:41:21;24.50;55.90
10903;DHT22;5504;47.312;11.060;2023-08-08T10:43:57;25.40;56.20
10903;DHT22;5504;47.312;11.060;2023-08-08T10:46:26;25.50;47.40
10903;DHT22;5504;47.312;11.060;2023-08-08T10:48:53;25.10;53.30
10903;DHT22;5504;47.312;11.060;2023-08-08T10:51:19;25.60;53.60
10903;DHT22;5504;47.312;11.060;2023-08-08T10:53:46;25.20;50.10
10903;DHT22;5504;47.312;11.060;2023-08-08T10:56:14;25.70;60.10
10903;DHT22;5504;47.312;11.060;2023-08-08T10:58:42;26.10;54.60
10903;DHT22;5504;47.312;11.060;2023-08-08T11:01:12;26.20;53.10
10903;DHT22;5504;47.312;11.060;2023-08-08T11:03:39;26.40;54.60
10903;DHT22;5504;47.312;11.060;2023-08-08T11:06:09;26.40;52.40
10903;DHT22;5504;47.312;11.060;2023-08-08T11:08:36;25.30;44.50
10903;DHT22;5504;47.312;11.060;2023-08-08T11:11:04;25.10;52.70
10903;DHT22;5504;47.312;11.060;2023-08-08T11:13:30;25.40;50.60
10903;DHT22;5504;47.312;11.060;2023-08-08T11:15:56;24.00;45.20
10903;DHT22;5504;47.312;11.060;2023-08-08T11:18:22;24.60;49.90
10903;DHT22;5504;47.312;11.060;2023-08-08T11:20:49;25.30;51.90
10903;DHT22;5504;47.312;11.060;2023-08-08T11:23:15;26.10;55.90
10903;DHT22;5504;47.312;11.060;2023-08-08T11:25:43;26.90;57.30
10903;DHT22;5504;47.312;11.060;2023-08-08T11:28:10;27.00;50.00
10903;DHT22;5504;47.312;11.060;2023-08-08T11:30:40;25.90;45.50
10903;DHT22;5504;47.312;11.060;2023-08-08T11:33:06;25.10;50.20
10903;DHT22;5504;47.312;11.060;2023-08-08T11:35:32;25.80;49.20
10903;DHT22;5504;47.312;11.060;2023-08-08T11:38:00;26.20;51.00
10903;DHT22;5504;47.312;11.060;2023-08-08T11:40:28;26.60;47.90
10903;DHT22;5504;47.312;11.060;2023-08-08T11:42:55;26.50;50.80
10903;DHT22;5504;47.312;11.060;2023-08-08T11:45:22;26.40;44.80
10903;DHT22;5504;47.312;11.060;2023-08-08T11:47:53;25.60;42.60
10903;DHT22;5504;47.312;11.060;2023-08-08T11:50:20;25.70;54.50
10903;DHT22;5504;47.312;11.060;2023-08-08T11:52:49;25.70;45.40
10903;DHT22;5504;47.312;11.060;2023-08-08T11:55:16;25.50;50.20
10903;DHT22;5504;47.312;11.060;2023-08-08T11:57:42;25.60;48.00
10903;DHT22;5504;47.312;11.060;2023-08-08T12:00:09;25.20;45.00
10903;DHT22;5504;47.312;11.060;2023-08-08T12:02:39;25.20;51.20
10903;DHT22;5504;47.312;11.060;2023-08-08T12:05:06;25.90;53.30
10903;DHT22;5504;47.312;11.060;2023-08-08T12:07:32;26.30;54.50
10903;DHT22;5504;47.312;11.060;2023-08-08T12:09:59;26.50;49.10
10903;DHT22;5504;47.312;11.060;2023-08-08T12:12:28;26.20;44.80
10903;DHT22;5504;47.312;11.060;2023-08-08T12:14:54;26.60;48.90
10903;DHT22;5504;47.312;11.060;2023-08-08T12:17:21;26.60;50.00
10903;DHT22;5504;47.312;11.060;2023-08-08T12:19:47;26.50;49.50
10903;DHT22;5504;47.312;11.060;2023-08-08T12:22:14;26.50;50.00
10903;DHT22;5504;47.312;11.060;2023-08-08T12:24:40;26.40;47.40
10903;DHT22;5504;47.312;11.060;2023-08-08T12:27:06;26.40;49.40
10903;DHT22;5504;47.312;11.060;2023-08-08T12:29:31;26.50;49.00
10903;DHT22;5504;47.312;11.060;2023-08-08T12:31:57;26.40;48.60
10903;DHT22;5504;47.312;11.060;2023-08-08T12:34:23;26.50;49.50
10903;DHT22;5504;47.312;11.060;2023-08-08T12:36:48;26.60;51.10
10903;DHT22;5504;47.312;11.060;2023-08-08T12:39:14;26.50;48.00
10903;DHT22;5504;47.312;11.060;2023-08-08T12:41:40;26.50;48.30
10903;DHT22;5504;47.312;11.060;2023-08-08T12:44:06;26.50;48.40
10903;DHT22;5504;47.312;11.060;2023-08-08T12:46:33;26.10;45.90
10903;DHT22;5504;47.312;11.060;2023-08-08T12:48:59;25.80;48.60
10903;DHT22;5504;47.312;11.060;2023-08-08T12:51:25;25.90;52.40
10903;DHT22;5504;47.312;11.060;2023-08-08T12:53:51;26.10;50.90
10903;DHT22;5504;47.312;11.060;2023-08-08T12:56:16;26.40;51.40
10903;DHT22;5504;47.312;11.060;2023-08-08T12:58:42;26.50;48.30
10903;DHT22;5504;47.312;11.060;2023-08-08T13:01:08;26.50;49.30
10903;DHT22;5504;47.312;11.060;2023-08-08T13:03:34;26.40;49.50
10903;DHT22;5504;47.312;11.060;2023-08-08T13:06:00;26.10;48.70
10903;DHT22;5504;47.312;11.060;2023-08-08T13:08:25;25.90;47.70
10903;DHT22;5504;47.312;11.060;2023-08-08T13:10:51;25.80;49.70
10903;DHT22;5504;47.312;11.060;2023-08-08T13:13:17;25.70;52.40
10903;DHT22;5504;47.312;11.060;2023-08-08T13:15:42;25.80;55.60
10903;DHT22;5504;47.312;11.060;2023-08-08T13:18:09;25.90;56.10
10903;DHT22;5504;47.312;11.060;2023-08-08T13:20:35;26.00;53.00
10903;DHT22;5504;47.312;11.060;2023-08-08T13:23:00;26.00;51.00
10903;DHT22;5504;47.312;11.060;2023-08-08T13:25:26;26.10;55.30
10903;DHT22;5504;47.312;11.060;2023-08-08T13:27:52;26.20;52.90
10903;DHT22;5504;47.312;11.060;2023-08-08T13:30:17;26.30;51.50
10903;DHT22;5504;47.312;11.060;2023-08-08T13:32:43;26.40;54.70
10903;DHT22;5504;47.312;11.060;2023-08-08T13:35:09;26.40;57.60
10903;DHT22;5504;47.312;11.060;2023-08-08T13:37:35;26.50;58.50
10903;DHT22;5504;47.312;11.060;2023-08-08T13:40:00;26.50;57.60
10903;DHT22;5504;47.312;11.060;2023-08-08T13:42:26;26.60;56.10
10903;DHT22;5504;47.312;11.060;2023-08-08T13:44:52;26.60;54.90
10903;DHT22;5504;47.312;11.060;2023-08-08T13:47:17;26.60;55.70
10903;DHT22;5504;47.312;11.060;2023-08-08T13:49:43;26.50;48.30
10903;DHT22;5504;47.312;11.060;2023-08-08T13:52:09;26.50;53.00
10903;DHT22;5504;47.312;11.060;2023-08-08T13:54:35;26.50;57.10
10903;DHT22;5504;47.312;11.060;2023-08-08T13:57:01;26.40;57.30
10903;DHT22;5504;47.312;11.060;2023-08-08T13:59:26;26.30;57.20
10903;DHT22;5504;47.312;11.060;2023-08-08T14:01:52;26.30;55.00
10903;DHT22;5504;47.312;11.060;2023-08-08T14:04:18;26.20;54.40
10903;DHT22;5504;47.312;11.060;2023-08-08T14:06:44;26.00;57.50
10903;DHT22;5504;47.312;11.060;2023-08-08T14:09:10;25.70;57.20
10903;DHT22;5504;47.312;11.060;2023-08-08T14:11:36;25.50;60.20
10903;DHT22;5504;47.312;11.060;2023-08-08T14:14:02;25.40;59.70
10903;DHT22;5504;47.312;11.060;2023-08-08T14:16:28;25.30;59.10
10903;DHT22;5504;47.312;11.060;2023-08-08T14:18:53;25.10;59.10
10903;DHT22;5504;47.312;11.060;2023-08-08T14:21:19;24.90;59.80
10903;DHT22;5504;47.312;11.060;2023-08-08T14:23:45;24.70;62.30
10903;DHT22;5504;47.312;11.060;2023-08-08T14:26:11;24.70;61.50
10903;DHT22;5504;47.312;11.060;2023-08-08T14:28:36;24.50;59.70
10903;DHT22;5504;47.312;11.060;2023-08-08T14:31:02;24.50;62.80
10903;DHT22;5504;47.312;11.060;2023-08-08T14:33:32;24.50;64.00
10903;DHT22;5504;47.312;11.060;2023-08-08T14:35:58;24.50;65.10
10903;DHT22;5504;47.312;11.060;2023-08-08T14:38:24;24.40;64.70
10903;DHT22;5504;47.312;11.060;2023-08-08T14:40:50;24.30;68.40
10903;DHT22;5504;47.312;11.060;2023-08-08T14:43:18;24.30;68.20
10903;DHT22;5504;47.312;11.060;2023-08-08T14:45:44;24.40;66.00
10903;DHT22;5504;47.312;11.060;2023-08-08T14:48:10;24.40;62.90
10903;DHT22;5504;47.312;11.060;2023-08-08T14:50:35;24.40;65.40
10903;DHT22;5504;47.312;11.060;2023-08-08T14:53:01;24.30;64.10
10903;DHT22;5504;47.312;11.060;2023-08-08T14:55:27;24.40;61.80
10903;DHT22;5504;47.312;11.060;2023-08-08T14:57:53;24.40;62.30
10903;DHT22;5504;47.312;11.060;2023-08-08T15:00:19;24.50;64.50
10903;DHT22;5504;47.312;11.060;2023-08-08T15:02:44;24.50;65.10
10903;DHT22;5504;47.312;11.060;2023-08-08T15:05:10;24.60;69.20
10903;DHT22;5504;47.312;11.060;2023-08-08T15:07:36;24.60;66.70
10903;DHT22;5504;47.312;11.060;2023-08-08T15:10:02;24.50;63.90
10903;DHT22;5504;47.312;11.060;2023-08-08T15:12:27;24.60;63.10
10903;DHT22;5504;47.312;11.060;2023-08-08T15:14:53;24.70;64.20
10903;DHT22;5504;47.312;11.060;2023-08-08T15:17:19;24.40;58.80
10903;DHT22;5504;47.312;11.060;2023-08-08T15:19:44;24.50;61.80
10903;DHT22;5504;47.312;11.060;2023-08-08T15:22:11;24.70;60.20
10903;DHT22;5504;47.312;11.060;2023-08-08T15:24:36;24.70;58.90
10903;DHT22;5504;47.312;11.060;2023-08-08T15:27:03;24.80;58.90
10903;DHT22;5504;47.312;11.060;2023-08-08T15:29:29;24.90;58.30
10903;DHT22;5504;47.312;11.060;2023-08-08T15:31:55;24.70;55.50